Time;durP1;ratioP1;P1;durP2;ratioP2;P2;SDS_P1;SDS_P2;PMS_P1;PMS_P2;Temp;Humidity;BMP_temperature;BMP_pressure;BME280_temperature;BME280_humidity;BME280_pressure;Samples;Min_cycle;Max_cycle;Signal;HPM_P1;HPM_P2
2023/06/11 00:01:14;;;;;;;7.18;5.97;;;24.30;85.60;;;;;;5096791;28;20174;-64
2023/06/11 00:03:40;;;;;;;5.90;5.30;;;24.20;85.70;;;;;;5096489;28;20212;-64
2023/06/11 00:06:10;;;;;;;6.90;6.20;;;24.20;86.40;;;;;;5096447;28;20194;-64
2023/06/11 00:08:36;;;;;;;6.72;6.05;;;24.20;86.00;;;;;;5096606;28;20245;-64
2023/06/11 00:11:02;;;;;;;9.68;5.78;;;24.10;86.20;;;;;;5096394;28;20170;-64
2023/06/11 00:13:28;;;;;;;7.20;6.10;;;23.90;86.50;;;;;;5096290;28;20178;-64
2023/06/11 00:15:54;;;;;;;8.20;6.20;;;23.90;87.00;;;;;;5096324;28;20194;-64
2023/06/11 00:18:20;;;;;;;6.20;5.60;;;23.80;87.00;;;;;;5096236;28;20276;-64
2023/06/11 00:20:47;;;;;;;6.80;6.10;;;23.90;87.20;;;;;;5096494;28;20508;-64
2023/06/11 00:23:13;;;;;;;7.00;5.53;;;23.90;87.30;;;;;;5096310;28;20174;-64
2023/06/11 00:25:39;;;;;;;6.35;5.80;;;23.80;87.60;;;;;;5096329;28;20170;-64
2023/06/11 00:28:05;;;;;;;7.70;5.95;;;23.80;87.90;;;;;;5096262;28;20201;-64
2023/06/11 00:30:31;;;;;;;6.85;6.15;;;23.80;88.10;;;;;;5096028;28;20177;-64
2023/06/11 00:32:56;;;;;;;9.02;5.78;;;23.70;87.80;;;;;;5096242;28;20174;-64
2023/06/11 00:35:22;;;;;;;9.00;5.72;;;23.70;88.20;;;;;;5096052;28;20229;-64
2023/06/11 00:37:49;;;;;;;6.88;6.20;;;23.70;88.10;;;;;;5096082;28;20635;-64
2023/06/11 00:40:15;;;;;;;8.20;6.18;;;23.60;88.50;;;;;;5095843;28;20692;-64
2023/06/11 00:42:41;;;;;;;7.57;5.93;;;23.70;88.70;;;;;;5095845;28;20261;-64
2023/06/11 00:45:08;;;;;;;6.90;6.20;;;23.60;88.80;;;;;;5094917;28;20264;-64
2023/06/11 00:47:36;;;;;;;8.55;5.78;;;23.60;88.60;;;;;;5095486;28;20220;-64
2023/06/11 00:50:03;;;;;;;7.68;6.28;;;23.60;89.40;;;;;;5078096;28;20651;-64
2023/06/11 00:52:29;;;;;;;8.70;6.35;;;23.50;89.00;;;;;;5095805;28;20216;-64
2023/06/11 00:54:55;;;;;;;6.63;5.90;;;23.50;89.20;;;;;;5095610;28;20244;-64
2023/06/11 00:57:24;;;;;;;8.73;6.25;;;23.50;89.40;;;;;;5095903;28;20575;-64
2023/06/11 00:59:55;;;;;;;9.02;5.93;;;23.50;89.60;;;;;;5095512;28;20206;-63
2023/06/11 01:02:33;;;;;;;5.97;5.43;;;23.40;89.70;;;;;;5095688;28;20180;-64
2023/06/11 01:05:03;;;;;;;9.20;6.70;;;23.40;90.10;;;;;;5095570;28;20272;-64
2023/06/11 01:07:34;;;;;;;8.48;6.20;;;23.20;90.20;;;;;;5095442;28;20178;-64
2023/06/11 01:10:02;;;;;;;8.15;6.15;;;23.30;90.30;;;;;;5095325;28;20170;-64
2023/06/11 01:12:27;;;;;;;7.32;6.03;;;23.20;90.40;;;;;;5095257;28;20170;-63
2023/06/11 01:14:53;;;;;;;11.38;6.32;;;23.20;90.50;;;;;;5095169;28;20206;-64
2023/06/11 01:17:44;;;;;;;8.23;6.22;;;23.20;90.70;;;;;;5095327;28;20178;-64
2023/06/11 01:20:17;;;;;;;6.97;6.28;;;23.10;90.80;;;;;;5095153;28;20170;-63
2023/06/11 01:23:14;;;;;;;7.05;6.03;;;23.10;90.80;;;;;;5095082;28;20650;-63
2023/06/11 01:25:46;;;;;;;7.35;6.07;;;23.10;90.90;;;;;;5095116;28;20215;-63
2023/06/11 01:28:17;;;;;;;9.25;6.35;;;23.00;91.20;;;;;;5095070;28;20170;-64
2023/06/11 01:30:49;;;;;;;8.38;6.63;;;23.00;91.20;;;;;;5095071;28;20207;-63
2023/06/11 01:33:15;;;;;;;7.53;6.55;;;23.00;91.30;;;;;;5094975;28;20216;-64
2023/06/11 01:35:42;;;;;;;8.90;6.20;;;22.90;91.40;;;;;;5094775;28;20274;-63
2023/06/11 01:38:08;;;;;;;7.95;6.30;;;22.90;91.50;;;;;;5094709;28;20695;-64
2023/06/11 01:40:34;;;;;;;7.85;6.18;;;22.80;91.70;;;;;;5094837;28;20174;-64
2023/06/11 01:43:00;;;;;;;9.52;6.35;;;22.80;91.80;;;;;;5094765;28;20261;-63
2023/06/11 01:45:27;;;;;;;8.70;6.30;;;22.70;92.00;;;;;;5094626;28;20223;-64
2023/06/11 01:47:53;;;;;;;7.47;6.57;;;22.70;92.10;;;;;;5094174;28;20225;-64
2023/06/11 01:50:20;;;;;;;7.28;6.40;;;22.70;92.20;;;;;;5094657;28;20170;-63
2023/06/11 01:52:46;;;;;;;7.70;6.38;;;22.60;92.40;;;;;;5094585;28;20177;-63
2023/06/11 01:55:12;;;;;;;7.70;6.28;;;22.60;92.50;;;;;;5094350;28;20194;-63
2023/06/11 01:57:38;;;;;;;9.73;6.50;;;22.50;92.70;;;;;;5093231;28;20200;-64
2023/06/11 02:00:09;;;;;;;9.93;7.75;;;22.50;92.80;;;;;;5094366;28;20185;-64
2023/06/11 02:02:36;;;;;;;7.70;6.78;;;22.50;92.70;;;;;;5094244;28;20574;-63
2023/06/11 02:05:01;;;;;;;7.80;6.50;;;22.50;92.80;;;;;;5094107;28;20752;-63
2023/06/11 02:07:27;;;;;;;8.55;7.20;;;22.40;92.80;;;;;;5094384;28;20229;-64
2023/06/11 02:09:53;;;;;;;8.65;6.85;;;22.50;92.80;;;;;;5094172;28;20174;-64
2023/06/11 02:12:19;;;;;;;8.60;7.28;;;22.40;92.90;;;;;;5094105;28;20174;-63
2023/06/11 02:14:45;;;;;;;7.63;6.75;;;22.40;93.00;;;;;;5094076;28;20209;-63
2023/06/11 02:17:10;;;;;;;9.48;6.97;;;22.30;93.20;;;;;;5093964;28;20177;-63
2023/06/11 02:19:36;;;;;;;7.60;6.70;;;22.20;93.50;;;;;;5094149;28;20182;-63
2023/06/11 02:22:02;;;;;;;8.38;7.10;;;22.30;93.40;;;;;;5075967;28;20189;-63
2023/06/11 02:24:27;;;;;;;7.95;6.07;;;22.30;93.50;;;;;;5094057;28;20702;-63
2023/06/11 02:26:53;;;;;;;7.50;6.70;;;22.20;93.70;;;;;;5093880;28;20182;-64
2023/06/11 02:29:18;;;;;;;7.20;6.53;;;22.10;93.50;;;;;;5093806;28;20170;-64
2023/06/11 02:31:44;;;;;;;8.98;6.80;;;22.10;93.70;;;;;;5093676;28;20574;-63
2023/06/11 02:34:10;;;;;;;9.65;7.13;;;22.10;93.70;;;;;;5093945;28;20173;-63
2023/06/11 02:36:36;;;;;;;8.60;6.80;;;22.10;93.80;;;;;;5093723;28;20185;-63
2023/06/11 02:39:03;;;;;;;8.88;6.80;;;22.10;93.90;;;;;;5093723;28;20167;-63
2023/06/11 02:41:28;;;;;;;7.22;6.63;;;22.00;94.20;;;;;;5093819;28;20638;-63
2023/06/11 02:43:54;;;;;;;10.57;7.00;;;22.00;94.20;;;;;;5093629;28;20174;-63
2023/06/11 02:46:20;;;;;;;9.05;7.20;;;22.00;94.10;;;;;;5093502;28;20178;-63
2023/06/11 02:48:45;;;;;;;8.20;7.35;;;22.00;94.20;;;;;;5093710;28;20308;-63
2023/06/11 02:51:11;;;;;;;8.93;6.55;;;22.10;94.10;;;;;;5093532;28;20648;-63
2023/06/11 02:53:37;;;;;;;10.85;7.00;;;22.00;94.20;;;;;;5093630;28;20673;-63
2023/06/11 02:56:02;;;;;;;8.73;6.72;;;22.00;94.60;;;;;;5093349;28;20235;-63
2023/06/11 02:58:28;;;;;;;14.27;7.00;;;22.00;94.40;;;;;;5093571;28;20261;-63
2023/06/11 03:00:54;;;;;;;9.63;7.20;;;21.90;94.60;;;;;;5093361;28;20539;-63
2023/06/11 03:03:19;;;;;;;7.38;6.78;;;21.90;94.50;;;;;;5093522;28;20212;-63
2023/06/11 03:05:45;;;;;;;10.40;7.38;;;21.80;94.60;;;;;;5093570;28;20193;-63
2023/06/11 03:08:10;;;;;;;9.43;7.10;;;21.80;94.60;;;;;;5092889;28;20174;-63
2023/06/11 03:10:36;;;;;;;7.68;6.75;;;21.70;94.60;;;;;;5093460;28;20535;-63
2023/06/11 03:13:02;;;;;;;9.55;7.65;;;21.80;94.90;;;;;;5093244;28;20181;-63
2023/06/11 03:15:28;;;;;;;8.73;7.13;;;21.80;94.70;;;;;;5093085;28;20217;-63
2023/06/11 03:17:54;;;;;;;8.80;6.65;;;21.90;94.80;;;;;;5093470;28;20178;-63
2023/06/11 03:20:19;;;;;;;10.23;7.13;;;21.80;94.50;;;;;;5093694;28;20177;-63
2023/06/11 03:22:45;;;;;;;7.85;6.85;;;21.80;94.80;;;;;;5093340;28;20174;-63
2023/06/11 03:25:10;;;;;;;7.68;6.80;;;21.80;94.70;;;;;;5093202;28;20538;-63
2023/06/11 03:27:37;;;;;;;8.32;7.07;;;21.80;94.70;;;;;;5093160;28;20181;-63
2023/06/11 03:30:03;;;;;;;11.70;7.32;;;21.80;94.60;;;;;;5092986;28;20549;-64
2023/06/11 03:32:29;;;;;;;8.63;7.13;;;21.80;94.80;;;;;;5093245;28;20209;-63
2023/06/11 03:34:55;;;;;;;7.88;6.53;;;21.80;94.70;;;;;;5093089;28;20245;-63
2023/06/11 03:37:20;;;;;;;8.43;7.43;;;21.80;94.80;;;;;;5092935;28;20200;-63
2023/06/11 03:39:46;;;;;;;7.60;6.88;;;21.70;95.00;;;;;;5093137;28;20208;-63
2023/06/11 03:42:14;;;;;;;8.05;7.05;;;21.60;95.00;;;;;;5093235;28;20217;-63
2023/06/11 03:44:40;;;;;;;8.40;7.60;;;21.60;95.10;;;;;;5092905;28;20182;-63
2023/06/11 03:47:06;;;;;;;8.38;7.53;;;21.70;95.10;;;;;;5093294;28;20523;-63
2023/06/11 03:49:31;;;;;;;10.30;7.65;;;21.70;95.00;;;;;;5093119;28;20229;-63
2023/06/11 03:52:00;;;;;;;10.38;7.43;;;21.60;95.20;;;;;;5093336;28;20200;-63
2023/06/11 03:54:26;;;;;;;11.90;7.43;;;21.60;95.40;;;;;;5092810;28;20626;-63
2023/06/11 03:56:52;;;;;;;8.40;6.85;;;21.50;95.40;;;;;;5093000;28;20209;-63
2023/06/11 03:59:17;;;;;;;8.57;6.70;;;21.60;95.60;;;;;;5092793;28;20658;-63
2023/06/11 04:01:43;;;;;;;8.52;7.15;;;21.50;95.90;;;;;;5093090;28;20228;-63
2023/06/11 04:04:09;;;;;;;7.47;6.78;;;21.50;95.70;;;;;;5092875;28;20174;-63
2023/06/11 04:06:38;;;;;;;8.05;7.25;;;21.50;96.00;;;;;;5126926;28;20597;-63
2023/06/11 04:09:05;;;;;;;8.57;7.43;;;21.50;95.90;;;;;;5133738;28;20210;-63
2023/06/11 04:11:30;;;;;;;8.07;7.15;;;21.60;95.90;;;;;;5133694;28;20255;-63
2023/06/11 04:13:56;;;;;;;10.25;8.00;;;21.50;96.20;;;;;;5133624;28;20204;-63
2023/06/11 04:16:22;;;;;;;8.10;7.35;;;21.40;96.30;;;;;;5133694;28;20207;-63
2023/06/11 04:18:47;;;;;;;9.95;7.85;;;21.40;96.30;;;;;;5133754;28;20207;-63
2023/06/11 04:21:14;;;;;;;8.60;7.53;;;21.40;96.40;;;;;;5135636;27;20259;-63
2023/06/11 04:23:40;;;;;;;9.50;7.45;;;21.50;96.60;;;;;;5137303;27;20251;-63
2023/06/11 04:26:10;;;;;;;11.93;7.85;;;21.50;96.50;;;;;;5137189;27;20176;-63
2023/06/11 04:28:36;;;;;;;9.27;7.43;;;21.60;96.10;;;;;;5137142;27;20183;-63
2023/06/11 04:31:03;;;;;;;9.63;7.90;;;21.60;96.40;;;;;;5137310;27;20176;-64
2023/06/11 04:33:32;;;;;;;9.70;7.45;;;21.60;96.30;;;;;;5137055;27;20200;-64
2023/06/11 04:36:04;;;;;;;9.20;8.05;;;21.60;96.30;;;;;;5136941;27;20215;-64
2023/06/11 04:38:31;;;;;;;8.45;7.38;;;21.50;96.30;;;;;;5136949;27;20205;-64
2023/06/11 04:40:57;;;;;;;9.48;7.38;;;21.50;96.60;;;;;;5136871;27;20177;-64
2023/06/11 04:43:27;;;;;;;11.02;7.63;;;21.60;96.90;;;;;;5136775;27;20177;-64
2023/06/11 04:45:56;;;;;;;9.80;7.80;;;21.50;96.70;;;;;;5136908;27;20199;-64
2023/06/11 04:48:31;;;;;;;10.85;7.88;;;21.50;97.10;;;;;;5136531;27;20252;-64
2023/06/11 04:50:59;;;;;;;8.10;7.30;;;21.40;96.70;;;;;;5136735;27;20179;-64
2023/06/11 04:53:27;;;;;;;9.15;7.95;;;21.40;96.80;;;;;;5136687;27;20177;-64
2023/06/11 04:55:54;;;;;;;9.52;7.55;;;21.60;96.80;;;;;;5136398;27;20549;-64
2023/06/11 04:58:27;;;;;;;11.55;8.13;;;21.70;97.00;;;;;;5136702;27;20183;-64
2023/06/11 05:00:57;;;;;;;8.98;8.07;;;21.70;96.60;;;;;;5136603;27;20168;-64
2023/06/11 05:03:31;;;;;;;9.30;8.40;;;21.60;96.70;;;;;;5136483;27;20255;-63
2023/06/11 05:05:57;;;;;;;8.45;7.65;;;21.70;96.90;;;;;;5136436;27;20176;-64
2023/06/11 05:08:25;;;;;;;9.27;7.40;;;21.80;96.70;;;;;;5136289;27;20173;-64
2023/06/11 05:10:59;;;;;;;8.77;7.97;;;21.80;96.80;;;;;;5136491;27;20217;-64
2023/06/11 05:13:25;;;;;;;8.65;7.85;;;21.90;97.00;;;;;;5136269;27;20217;-64
2023/06/11 05:15:52;;;;;;;9.05;8.13;;;22.00;97.50;;;;;;5136172;27;20239;-64
2023/06/11 05:18:17;;;;;;;11.10;8.35;;;22.00;96.40;;;;;;5117756;27;20657;-64
2023/06/11 05:20:43;;;;;;;9.35;7.85;;;22.00;96.30;;;;;;5136105;27;20238;-64
2023/06/11 05:23:10;;;;;;;8.95;7.80;;;22.00;96.90;;;;;;5136357;27;20180;-65
2023/06/11 05:25:35;;;;;;;11.57;8.45;;;22.00;96.90;;;;;;5136093;27;20334;-63
2023/06/11 05:28:02;;;;;;;10.18;8.57;;;22.00;96.90;;;;;;5136044;27;20682;-64
2023/06/11 05:30:36;;;;;;;12.40;8.48;;;22.10;96.70;;;;;;5135911;27;20542;-63
2023/06/11 05:33:02;;;;;;;9.38;8.45;;;22.00;96.50;;;;;;5135310;27;20172;-64
2023/06/11 05:35:31;;;;;;;11.05;8.07;;;22.10;96.70;;;;;;5135657;27;20676;-64
2023/06/11 05:37:57;;;;;;;9.30;7.93;;;22.20;97.30;;;;;;5135923;27;20177;-63
2023/06/11 05:40:23;;;;;;;9.15;8.25;;;22.30;96.70;;;;;;5135789;27;20194;-63
2023/06/11 05:42:49;;;;;;;9.57;7.60;;;22.40;96.90;;;;;;5132391;27;20223;-63
2023/06/11 05:45:15;;;;;;;8.15;7.45;;;22.50;96.90;;;;;;5105018;28;20185;-63
2023/06/11 05:47:41;;;;;;;9.30;8.40;;;22.40;96.70;;;;;;5102849;28;20214;-63
2023/06/11 05:50:07;;;;;;;8.65;7.75;;;22.60;96.50;;;;;;5104933;28;20166;-64
2023/06/11 05:52:33;;;;;;;8.60;7.80;;;22.60;96.40;;;;;;5104500;28;20182;-63
2023/06/11 05:54:59;;;;;;;11.65;8.32;;;22.50;96.70;;;;;;5103229;28;20763;-64
2023/06/11 05:57:25;;;;;;;8.45;7.65;;;22.70;97.10;;;;;;5115543;27;20207;-63
2023/06/11 05:59:51;;;;;;;9.18;7.95;;;22.80;97.50;;;;;;5114580;28;20173;-63
2023/06/11 06:02:17;;;;;;;10.52;8.40;;;22.90;97.00;;;;;;5114351;28;20180;-63
2023/06/11 06:04:47;;;;;;;9.35;7.88;;;22.90;96.20;;;;;;5113721;28;20177;-63
2023/06/11 06:07:12;;;;;;;8.40;7.60;;;23.00;96.50;;;;;;5114491;27;20184;-63
2023/06/11 06:09:39;;;;;;;9.35;8.55;;;23.10;95.80;;;;;;5110397;27;20189;-64
2023/06/11 06:12:05;;;;;;;10.80;8.43;;;23.30;95.90;;;;;;5119463;27;20699;-63
2023/06/11 06:14:31;;;;;;;9.63;8.10;;;23.30;95.40;;;;;;5112119;28;20197;-63
2023/06/11 06:16:57;;;;;;;9.60;7.88;;;23.30;95.60;;;;;;5113343;28;20238;-63
2023/06/11 06:19:23;;;;;;;8.93;7.90;;;23.40;96.40;;;;;;5114013;28;20166;-63
2023/06/11 06:21:49;;;;;;;11.27;8.60;;;23.60;96.10;;;;;;5114487;28;20214;-62
2023/06/11 06:24:14;;;;;;;9.35;8.52;;;23.60;95.40;;;;;;5114440;28;20176;-62
2023/06/11 06:26:43;;;;;;;9.73;7.40;;;23.70;95.90;;;;;;5114419;28;20214;-62
2023/06/11 06:29:12;;;;;;;8.30;7.60;;;23.90;96.20;;;;;;5114140;28;20677;-62
2023/06/11 06:31:41;;;;;;;9.57;7.72;;;24.00;95.70;;;;;;5114098;28;20181;-63
2023/06/11 06:34:07;;;;;;;8.48;7.60;;;24.00;96.10;;;;;;5114175;28;20174;-62
2023/06/11 06:36:34;;;;;;;8.27;7.57;;;24.00;95.40;;;;;;5113814;28;20300;-62
2023/06/11 06:39:01;;;;;;;10.25;7.70;;;24.10;96.10;;;;;;5113966;28;20314;-62
2023/06/11 06:41:27;;;;;;;8.88;7.90;;;24.30;95.50;;;;;;5114010;28;20177;-62
2023/06/11 06:43:53;;;;;;;9.73;7.80;;;24.50;96.20;;;;;;5113346;28;20264;-62
2023/06/11 06:46:19;;;;;;;8.63;7.70;;;24.50;94.40;;;;;;5113628;28;20253;-62
2023/06/11 06:48:45;;;;;;;8.90;7.90;;;24.60;95.30;;;;;;5129207;27;20756;-62
2023/06/11 06:51:10;;;;;;;7.70;7.00;;;24.60;94.40;;;;;;5134345;27;20690;-62
2023/06/11 06:53:36;;;;;;;7.57;6.80;;;24.70;94.30;;;;;;5134232;27;20300;-63
2023/06/11 06:56:05;;;;;;;8.13;7.32;;;24.90;94.80;;;;;;5134256;27;20200;-62
2023/06/11 06:58:32;;;;;;;8.60;6.93;;;24.90;94.60;;;;;;5134199;27;20184;-62
2023/06/11 07:00:58;;;;;;;8.00;7.28;;;25.10;95.70;;;;;;5133963;27;20169;-62
2023/06/11 07:03:24;;;;;;;9.65;7.93;;;25.20;94.50;;;;;;5134725;27;20272;-62
2023/06/11 07:05:50;;;;;;;7.72;6.45;;;25.10;94.10;;;;;;5134436;27;20637;-62
2023/06/11 07:08:16;;;;;;;7.50;6.80;;;25.40;94.90;;;;;;5103722;28;20184;-62
2023/06/11 07:10:47;;;;;;;7.63;6.93;;;25.50;93.50;;;;;;5093093;28;20523;-62
2023/06/11 07:13:12;;;;;;;7.68;6.97;;;25.70;93.70;;;;;;5093148;28;20170;-62
2023/06/11 07:15:38;;;;;;;7.38;6.75;;;25.80;94.20;;;;;;5093237;28;20227;-62
2023/06/11 07:18:04;;;;;;;7.53;6.80;;;26.00;93.90;;;;;;5093148;28;20276;-62
2023/06/11 07:20:30;;;;;;;8.52;7.43;;;26.10;93.70;;;;;;5093184;28;20170;-62
2023/06/11 07:22:55;;;;;;;7.68;6.97;;;26.00;93.30;;;;;;5093308;28;20657;-62
2023/06/11 07:25:21;;;;;;;8.02;7.13;;;26.20;94.60;;;;;;5092769;28;20180;-62
2023/06/11 07:27:47;;;;;;;7.97;7.20;;;26.30;93.40;;;;;;5092889;28;20170;-62
2023/06/11 07:30:13;;;;;;;8.13;6.75;;;26.40;93.60;;;;;;5093051;28;20178;-63
2023/06/11 07:32:38;;;;;;;7.20;6.50;;;26.60;93.40;;;;;;5093419;28;20173;-62
2023/06/11 07:35:05;;;;;;;7.30;6.60;;;26.70;92.70;;;;;;5093299;28;20630;-62
2023/06/11 07:37:31;;;;;;;7.85;7.22;;;26.70;92.40;;;;;;5093100;28;20182;-62
2023/06/11 07:39:57;;;;;;;7.05;6.20;;;26.80;92.90;;;;;;5092342;28;20623;-62
2023/06/11 07:42:23;;;;;;;8.20;6.93;;;27.10;93.60;;;;;;5092989;28;20249;-62
2023/06/11 07:44:49;;;;;;;7.60;6.25;;;27.20;92.70;;;;;;5093523;28;20547;-62
2023/06/11 07:47:14;;;;;;;8.15;6.68;;;27.10;92.90;;;;;;5093028;28;20174;-62
2023/06/11 07:49:40;;;;;;;6.80;6.20;;;27.20;92.70;;;;;;5093146;28;20638;-62
2023/06/11 07:52:06;;;;;;;8.10;6.57;;;27.10;91.60;;;;;;5093043;28;20580;-62
2023/06/11 07:54:32;;;;;;;8.85;6.25;;;27.10;93.20;;;;;;5103698;28;20206;-62
2023/06/11 07:56:58;;;;;;;6.95;6.32;;;27.20;92.70;;;;;;5102627;28;20212;-62
2023/06/11 07:59:24;;;;;;;7.13;6.53;;;27.20;92.40;;;;;;5096664;28;20170;-62
2023/06/11 08:01:49;;;;;;;7.15;6.55;;;27.50;92.60;;;;;;5096581;28;20186;-62
2023/06/11 08:04:15;;;;;;;6.72;6.07;;;27.70;92.70;;;;;;5096840;28;20261;-62
2023/06/11 08:06:42;;;;;;;6.82;6.13;;;27.90;92.00;;;;;;5100668;28;20189;-62
2023/06/11 08:09:08;;;;;;;6.88;6.18;;;27.70;91.50;;;;;;5117171;28;20181;-62
2023/06/11 08:11:33;;;;;;;6.90;6.22;;;27.80;92.10;;;;;;5116877;28;20173;-62
2023/06/11 08:13:59;;;;;;;6.78;6.07;;;27.90;91.90;;;;;;5117124;28;20174;-62
2023/06/11 08:16:25;;;;;;;7.82;7.00;;;28.20;92.50;;;;;;5116839;28;20250;-63
2023/06/11 08:18:51;;;;;;;7.10;6.40;;;28.20;91.70;;;;;;5116819;28;20176;-62
2023/06/11 08:21:17;;;;;;;6.72;6.13;;;28.30;91.80;;;;;;5116778;28;20177;-62
2023/06/11 08:23:42;;;;;;;7.40;6.70;;;28.50;91.80;;;;;;5116496;28;20174;-62
2023/06/11 08:26:09;;;;;;;6.55;5.95;;;28.50;91.20;;;;;;5098379;28;20189;-62
2023/06/11 08:28:36;;;;;;;6.75;6.15;;;28.30;90.80;;;;;;5116802;28;20222;-62
2023/06/11 08:31:01;;;;;;;7.15;6.45;;;28.20;90.80;;;;;;5116707;28;20256;-62
2023/06/11 08:33:27;;;;;;;7.10;6.47;;;28.10;90.60;;;;;;5116481;28;20216;-62
2023/06/11 08:35:53;;;;;;;6.40;5.80;;;28.30;91.00;;;;;;5116441;28;20251;-62
2023/06/11 08:38:19;;;;;;;6.93;6.32;;;28.40;91.60;;;;;;5116430;28;20183;-62
2023/06/11 08:40:45;;;;;;;6.82;6.22;;;28.50;91.20;;;;;;5116312;28;20656;-63
2023/06/11 08:43:11;;;;;;;6.65;5.88;;;28.50;91.40;;;;;;5116537;28;20162;-62
2023/06/11 08:45:37;;;;;;;6.40;5.80;;;28.50;91.30;;;;;;5098103;28;20575;-63
2023/06/11 08:48:04;;;;;;;6.53;5.90;;;28.70;90.70;;;;;;5116361;28;20217;-63
2023/06/11 08:50:33;;;;;;;7.28;6.13;;;29.10;91.30;;;;;;5116160;28;20177;-62
2023/06/11 08:53:02;;;;;;;6.53;5.90;;;28.90;90.20;;;;;;5116108;28;20173;-62
2023/06/11 08:55:29;;;;;;;7.78;6.10;;;28.90;89.80;;;;;;5115964;28;20269;-63
2023/06/11 08:57:55;;;;;;;6.93;6.30;;;29.00;90.30;;;;;;5116093;28;20181;-62
2023/06/11 09:00:21;;;;;;;5.80;5.30;;;29.00;89.60;;;;;;5116062;28;20184;-62
2023/06/11 09:02:47;;;;;;;6.50;5.85;;;29.20;90.50;;;;;;5116029;28;20180;-62
2023/06/11 09:05:13;;;;;;;6.22;5.72;;;29.10;90.20;;;;;;5115786;28;20272;-63
2023/06/11 09:07:51;;;;;;;9.00;5.97;;;29.40;90.90;;;;;;5115169;28;20245;-63
2023/06/11 09:10:17;;;;;;;6.55;5.95;;;29.50;90.20;;;;;;5115797;28;20630;-62
2023/06/11 09:12:42;;;;;;;5.93;5.43;;;29.60;90.50;;;;;;5115661;28;20173;-62
2023/06/11 09:15:09;;;;;;;6.30;5.70;;;29.40;90.10;;;;;;5115747;28;20201;-63
2023/06/11 09:17:37;;;;;;;6.82;6.13;;;29.60;90.30;;;;;;5115614;28;20260;-62
2023/06/11 09:20:05;;;;;;;6.80;5.85;;;29.60;88.40;;;;;;5115642;28;20169;-62
2023/06/11 09:22:30;;;;;;;6.30;5.70;;;29.60;88.40;;;;;;5115406;28;20230;-62
2023/06/11 09:24:56;;;;;;;6.22;5.63;;;29.50;90.40;;;;;;5115343;28;20637;-62
2023/06/11 09:27:22;;;;;;;5.65;5.13;;;29.70;88.20;;;;;;5115404;28;20188;-62
2023/06/11 09:29:48;;;;;;;6.22;5.63;;;29.90;90.00;;;;;;5115397;28;20170;-62
2023/06/11 09:32:13;;;;;;;7.75;5.93;;;30.10;89.50;;;;;;5115250;28;20184;-63
2023/06/11 09:34:44;;;;;;;6.43;5.72;;;30.20;89.80;;;;;;5115258;28;20649;-63
2023/06/11 09:37:11;;;;;;;7.22;6.00;;;30.20;88.60;;;;;;5115214;28;20180;-62
2023/06/11 09:39:36;;;;;;;6.32;5.72;;;30.40;88.50;;;;;;5115591;28;20294;-63
2023/06/11 09:42:02;;;;;;;6.10;5.50;;;30.30;88.70;;;;;;5097198;28;20197;-62
2023/06/11 09:44:33;;;;;;;6.55;5.95;;;30.30;88.30;;;;;;5115322;28;20173;-62
2023/06/11 09:46:59;;;;;;;6.25;5.45;;;30.40;86.20;;;;;;5115148;28;20264;-62
2023/06/11 09:49:25;;;;;;;6.80;6.07;;;30.60;88.50;;;;;;5114818;28;20258;-63
2023/06/11 09:51:53;;;;;;;5.47;4.97;;;30.60;86.50;;;;;;5115083;28;20177;-63
2023/06/11 09:54:21;;;;;;;6.07;5.57;;;30.70;85.50;;;;;;5114901;28;20177;-62
2023/06/11 09:56:47;;;;;;;5.68;5.25;;;30.80;88.20;;;;;;5114948;28;20238;-62
2023/06/11 09:59:16;;;;;;;6.45;5.53;;;30.90;85.50;;;;;;5114858;28;20222;-63
2023/06/11 10:01:47;;;;;;;6.57;5.63;;;30.70;87.00;;;;;;5114754;28;20165;-63
2023/06/11 10:04:13;;;;;;;5.75;5.28;;;30.80;85.60;;;;;;5114609;28;20210;-63
2023/06/11 10:06:45;;;;;;;5.85;5.28;;;30.80;86.00;;;;;;5114612;28;20177;-62
2023/06/11 10:09:15;;;;;;;5.82;5.32;;;30.50;85.00;;;;;;5114709;28;20166;-62
2023/06/11 10:11:41;;;;;;;6.72;5.35;;;30.60;85.20;;;;;;5114652;28;20173;-62
2023/06/11 10:14:17;;;;;;;5.38;4.88;;;30.90;87.40;;;;;;5096608;28;20166;-63
2023/06/11 10:16:54;;;;;;;5.57;5.07;;;31.00;89.20;;;;;;5114299;28;20696;-61
2023/06/11 10:19:22;;;;;;;5.18;4.78;;;31.10;85.70;;;;;;5113643;28;20176;-62
2023/06/11 10:21:51;;;;;;;6.18;5.35;;;31.00;85.80;;;;;;5114337;28;20188;-61
2023/06/11 10:24:22;;;;;;;5.13;4.63;;;31.20;84.40;;;;;;5114348;28;20181;-62
2023/06/11 10:27:12;;;;;;;5.40;4.90;;;31.20;85.80;;;;;;5114297;28;20238;-62
2023/06/11 10:29:46;;;;;;;5.43;4.72;;;31.20;85.80;;;;;;5114446;28;20158;-62
2023/06/11 10:32:15;;;;;;;6.00;5.40;;;31.10;85.30;;;;;;5114414;28;20173;-62
2023/06/11 10:34:41;;;;;;;5.18;4.68;;;31.30;86.40;;;;;;5114186;28;20550;-62
2023/06/11 10:37:07;;;;;;;4.78;4.38;;;31.40;85.60;;;;;;5114276;28;20177;-62
2023/06/11 10:39:32;;;;;;;5.55;4.90;;;31.30;83.80;;;;;;5114217;28;20188;-62
2023/06/11 10:42:00;;;;;;;4.95;4.45;;;31.10;84.20;;;;;;5113973;28;20174;-62
2023/06/11 10:44:26;;;;;;;5.25;4.70;;;31.30;86.60;;;;;;5114110;28;20530;-62
2023/06/11 10:46:53;;;;;;;5.13;4.68;;;31.30;85.50;;;;;;5114001;28;20165;-62
2023/06/11 10:49:22;;;;;;;5.20;4.70;;;31.30;84.90;;;;;;5113956;28;20311;-62
2023/06/11 10:51:49;;;;;;;6.55;4.95;;;31.40;84.90;;;;;;5113859;28;20599;-63
2023/06/11 10:54:26;;;;;;;5.25;4.60;;;31.50;84.10;;;;;;5113662;28;20706;-62
2023/06/11 10:56:56;;;;;;;5.32;4.72;;;31.60;83.50;;;;;;5113960;28;20187;-62
2023/06/11 10:59:22;;;;;;;5.07;4.65;;;31.50;84.20;;;;;;5113935;28;20212;-62
2023/06/11 11:01:52;;;;;;;5.00;4.60;;;31.50;81.10;;;;;;5114155;28;20534;-63
2023/06/11 11:04:18;;;;;;;5.97;4.20;;;31.30;82.80;;;;;;5095656;28;20661;-62
2023/06/11 11:06:44;;;;;;;6.15;4.38;;;31.20;81.70;;;;;;5113700;28;20173;-62
2023/06/11 11:09:11;;;;;;;4.82;4.30;;;31.30;82.60;;;;;;5113599;28;20173;-62
2023/06/11 11:11:38;;;;;;;4.68;4.28;;;31.30;82.00;;;;;;5095886;28;20211;-62
2023/06/11 11:14:05;;;;;;;5.85;4.45;;;31.30;82.40;;;;;;5113781;28;20215;-62
2023/06/11 11:16:31;;;;;;;4.78;4.38;;;31.40;83.70;;;;;;5113600;28;20254;-62
2023/06/11 11:18:56;;;;;;;5.05;4.20;;;31.50;82.90;;;;;;5113595;28;20630;-62
2023/06/11 11:21:29;;;;;;;4.95;4.28;;;31.40;82.00;;;;;;5113481;28;20165;-62
2023/06/11 11:23:55;;;;;;;5.00;4.50;;;31.50;82.30;;;;;;5113414;28;20496;-62
2023/06/11 11:26:21;;;;;;;5.18;4.65;;;31.50;82.10;;;;;;5113728;28;20252;-62
2023/06/11 11:28:50;;;;;;;5.00;4.50;;;31.60;82.50;;;;;;5113606;28;20246;-62
2023/06/11 11:31:20;;;;;;;4.93;4.28;;;31.60;83.20;;;;;;5117512;28;20177;-63
2023/06/11 11:33:47;;;;;;;5.07;4.60;;;31.60;83.30;;;;;;5117619;28;20252;-62
2023/06/11 11:36:13;;;;;;;5.47;4.15;;;31.60;83.00;;;;;;5117170;28;20254;-63
2023/06/11 11:38:38;;;;;;;5.40;4.60;;;31.70;83.10;;;;;;5117485;28;20634;-62
2023/06/11 11:41:11;;;;;;;5.07;4.50;;;31.90;82.80;;;;;;5117486;28;20208;-62
2023/06/11 11:43:41;;;;;;;4.93;4.40;;;32.10;82.40;;;;;;5117626;28;20169;-62
2023/06/11 11:46:27;;;;;;;4.00;3.70;;;32.40;82.80;;;;;;5117474;28;20165;-62
2023/06/11 11:48:55;;;;;;;4.28;3.88;;;32.30;79.00;;;;;;5116534;28;20624;-62
2023/06/11 11:51:24;;;;;;;4.43;4.03;;;32.40;81.20;;;;;;5117504;28;20177;-62
2023/06/11 11:53:51;;;;;;;4.78;4.28;;;32.70;82.10;;;;;;5117269;28;20188;-62
2023/06/11 11:56:17;;;;;;;4.57;4.18;;;32.80;81.70;;;;;;5117106;28;20205;-62
2023/06/11 11:58:44;;;;;;;4.82;4.28;;;32.70;80.50;;;;;;5117191;28;20173;-62
2023/06/11 12:01:26;;;;;;;4.72;4.18;;;32.60;81.20;;;;;;5116960;28;20242;-62
2023/06/11 12:03:57;;;;;;;4.53;4.13;;;32.80;81.30;;;;;;5117228;28;20177;-62
2023/06/11 12:06:25;;;;;;;5.68;4.07;;;32.50;77.50;;;;;;5098807;28;20184;-62
2023/06/11 12:08:50;;;;;;;4.93;4.28;;;32.30;79.20;;;;;;5116940;28;20205;-63
2023/06/11 12:11:16;;;;;;;5.30;3.78;;;32.20;79.70;;;;;;5116970;28;20216;-62
2023/06/11 12:13:41;;;;;;;4.07;3.67;;;32.20;77.90;;;;;;5116853;28;20176;-62
2023/06/11 12:16:07;;;;;;;4.13;3.83;;;32.20;79.60;;;;;;5116988;28;20239;-62
2023/06/11 12:18:33;;;;;;;4.55;4.15;;;32.20;78.40;;;;;;5116974;28;20177;-62
2023/06/11 12:20:59;;;;;;;4.70;3.75;;;32.20;79.30;;;;;;5116860;28;20197;-62
2023/06/11 12:23:24;;;;;;;4.88;4.05;;;32.30;78.30;;;;;;5116766;28;20201;-63
2023/06/11 12:25:50;;;;;;;5.32;4.03;;;32.30;78.00;;;;;;5116625;28;20191;-63
2023/06/11 12:28:17;;;;;;;4.30;3.90;;;32.20;79.00;;;;;;5097914;28;20294;-62
2023/06/11 12:30:43;;;;;;;4.13;3.83;;;32.20;78.20;;;;;;5115827;28;20173;-62
2023/06/11 12:33:09;;;;;;;3.90;3.58;;;32.20;76.20;;;;;;5115715;28;20185;-62
2023/06/11 12:35:36;;;;;;;5.47;3.95;;;32.10;77.90;;;;;;5115642;28;20197;-62
2023/06/11 12:38:02;;;;;;;5.18;4.45;;;31.80;75.60;;;;;;5115592;28;20218;-63
2023/06/11 12:40:30;;;;;;;4.65;3.65;;;31.40;77.80;;;;;;5115126;28;20177;-63
2023/06/11 12:42:58;;;;;;;4.18;3.78;;;31.50;77.10;;;;;;5114810;28;20189;-63
2023/06/11 12:45:30;;;;;;;4.78;4.22;;;31.70;78.90;;;;;;5115564;28;20207;-63